Observation data for Olton on 06/15/2019      Previous  Date  Next       Current Mesonet Observations  Soil Data  Daily Summary Page  Observations in Plain Language
KONS 150500Z 17017G24KT 24/17 A2984 RMK A01 T02390167  RH  065%=      5-min Rain = 0
KONS 150505Z 18016KT 24/17 A2984 RMK A01 T02370167  RH  066%=      5-min Rain = 0
KONS 150510Z 18016G21KT 24/17 A2984 RMK A01 T02370167  RH  067%=      5-min Rain = 0
KONS 150515Z 18016G21KT 24/17 A2984 RMK A01 T02360168  RH  067%=      5-min Rain = 0
KONS 150520Z 18016KT 23/17 A2985 RMK A01 T02340168  RH  068%=      5-min Rain = 0
KONS 150525Z 18016G21KT 23/17 A2985 RMK A01 T02340168  RH  068%=      5-min Rain = 0
KONS 150530Z 18017KT 23/17 A2985 RMK A01 T02340168  RH  068%=      5-min Rain = 0
KONS 150535Z 18016G21KT 23/17 A2985 RMK A01 T02330168  RH  069%=      5-min Rain = 0
KONS 150540Z 18016G22KT 23/17 A2984 RMK A01 T02320168  RH  069%=      5-min Rain = 0
KONS 150545Z 18016G22KT 23/17 A2984 RMK A01 T02310168  RH  069%=      5-min Rain = 0
KONS 150550Z 18016G21KT 23/17 A2984 RMK A01 T02310169  RH  070%=      5-min Rain = 0
KONS 150555Z 18016G21KT 23/17 A2984 RMK A01 T02300169  RH  070%=      5-min Rain = 0
KONS 150600Z 18015G20KT 23/17 A2984 RMK A01 T02290169  RH  071%=      5-min Rain = 0
KONS 150605Z 19015KT 23/17 A2984 RMK A01 T02280170  RH  071%=      5-min Rain = 0
KONS 150610Z 19014G19KT 23/17 A2984 RMK A01 T02270170  RH  072%=      5-min Rain = 0
KONS 150615Z 19015G20KT 23/17 A2984 RMK A01 T02270171  RH  072%=      5-min Rain = 0
KONS 150620Z 19014G19KT 23/17 A2984 RMK A01 T02260171  RH  073%=      5-min Rain = 0
KONS 150625Z 19015KT 23/17 A2984 RMK A01 T02260171  RH  073%=      5-min Rain = 0
KONS 150630Z 19015KT 22/17 A2984 RMK A01 T02240172  RH  074%=      5-min Rain = 0
KONS 150635Z 19014G19KT 22/17 A2984 RMK A01 T02230172  RH  075%=      5-min Rain = 0
KONS 150640Z 19015KT 22/17 A2984 RMK A01 T02230172  RH  075%=      5-min Rain = 0
KONS 150645Z 19015G20KT 22/17 A2984 RMK A01 T02230173  RH  075%=      5-min Rain = 0
KONS 150650Z 19016KT 22/17 A2983 RMK A01 T02230173  RH  075%=      5-min Rain = 0
KONS 150655Z 18015G20KT 22/17 A2983 RMK A01 T02220172  RH  075%=      5-min Rain = 0
KONS 150700Z 19016KT 22/17 A2983 RMK A01 T02220172  RH  075%=      5-min Rain = 0
KONS 150705Z 19014G19KT 22/17 A2983 RMK A01 T02210172  RH  076%=      5-min Rain = 0
KONS 150710Z 19014KT 22/17 A2983 RMK A01 T02190172  RH  077%=      5-min Rain = 0
KONS 150715Z 19014KT 22/17 A2983 RMK A01 T02190173  RH  077%=      5-min Rain = 0
KONS 150720Z 19015KT 22/17 A2983 RMK A01 T02190172  RH  077%=      5-min Rain = 0
KONS 150725Z 19014G19KT 22/17 A2983 RMK A01 T02170172  RH  077%=      5-min Rain = 0
KONS 150730Z 19013KT 22/17 A2983 RMK A01 T02150172  RH  078%=      5-min Rain = 0
KONS 150735Z 19013KT 21/17 A2983 RMK A01 T02140172  RH  079%=      5-min Rain = 0
KONS 150740Z 19014KT 21/17 A2983 RMK A01 T02140172  RH  079%=      5-min Rain = 0
KONS 150745Z 19013G18KT 21/17 A2983 RMK A01 T02130172  RH  079%=      5-min Rain = 0
KONS 150750Z 19014KT 21/17 A2982 RMK A01 T02110172  RH  080%=      5-min Rain = 0
KONS 150755Z 19014KT 21/17 A2982 RMK A01 T02120171  RH  080%=      5-min Rain = 0
KONS 150800Z 19013KT 21/17 A2982 RMK A01 T02110171  RH  080%=      5-min Rain = 0
KONS 150805Z 19014KT 21/17 A2982 RMK A01 T02100171  RH  080%=      5-min Rain = 0
KONS 150810Z 19013KT 21/17 A2982 RMK A01 T02090171  RH  081%=      5-min Rain = 0
KONS 150815Z 19013G18KT 21/17 A2982 RMK A01 T02080171  RH  081%=      5-min Rain = 0
KONS 150820Z 19014G20KT 21/17 A2982 RMK A01 T02090171  RH  081%=      5-min Rain = 0
KONS 150825Z 19013G18KT 21/17 A2982 RMK A01 T02090171  RH  081%=      5-min Rain = 0
KONS 150830Z 19014KT 21/17 A2982 RMK A01 T02080170  RH  081%=      5-min Rain = 0
KONS 150835Z 19013KT 21/17 A2982 RMK A01 T02070170  RH  081%=      5-min Rain = 0
KONS 150840Z 19012KT 21/17 A2982 RMK A01 T02060169  RH  081%=      5-min Rain = 0
KONS 150845Z 19013KT 21/17 A2982 RMK A01 T02050169  RH  082%=      5-min Rain = 0
KONS 150850Z 19013KT 20/17 A2982 RMK A01 T02040169  RH  082%=      5-min Rain = 0
KONS 150855Z 19013KT 20/17 A2981 RMK A01 T02040169  RH  082%=      5-min Rain = 0
KONS 150900Z 19014KT 20/17 A2981 RMK A01 T02040169  RH  082%=      5-min Rain = 0
KONS 150905Z 19012KT 20/17 A2981 RMK A01 T02010168  RH  083%=      5-min Rain = 0
KONS 150910Z 19012KT 20/17 A2981 RMK A01 T02010168  RH  083%=      5-min Rain = 0
KONS 150915Z 19012KT 20/17 A2982 RMK A01 T02000167  RH  083%=      5-min Rain = 0
KONS 150920Z 19012KT 20/17 A2982 RMK A01 T02000166  RH  083%=      5-min Rain = 0
KONS 150925Z 19013G18KT 20/17 A2982 RMK A01 T02000166  RH  083%=      5-min Rain = 0
KONS 150930Z 19013KT 20/17 A2982 RMK A01 T02000165  RH  082%=      5-min Rain = 0
KONS 150935Z 19014KT 20/16 A2982 RMK A01 T02000164  RH  082%=      5-min Rain = 0
KONS 150940Z 20013KT 20/16 A2982 RMK A01 T01990163  RH  082%=      5-min Rain = 0
KONS 150945Z 20014G19KT 20/16 A2982 RMK A01 T01990162  RH  081%=      5-min Rain = 0
KONS 150950Z 20013KT 20/16 A2982 RMK A01 T01990160  RH  080%=      5-min Rain = 0
KONS 150955Z 19013G18KT 20/16 A2982 RMK A01 T01990159  RH  080%=      5-min Rain = 0
KONS 151000Z 20012KT 20/16 A2982 RMK A01 T01980158  RH  079%=      5-min Rain = 0
KONS 151005Z 20012KT 20/16 A2982 RMK A01 T01970157  RH  080%=      5-min Rain = 0
KONS 151010Z 20012KT 20/16 A2982 RMK A01 T01960156  RH  080%=      5-min Rain = 0
KONS 151015Z 20011KT 19/16 A2982 RMK A01 T01940156  RH  080%=      5-min Rain = 0
KONS 151020Z 20011KT 19/16 A2982 RMK A01 T01920155  RH  081%=      5-min Rain = 0
KONS 151025Z 21011KT 19/15 A2982 RMK A01 T01920154  RH  081%=      5-min Rain = 0
KONS 151030Z 21012KT 19/15 A2982 RMK A01 T01910153  RH  080%=      5-min Rain = 0
KONS 151035Z 21011KT 19/15 A2982 RMK A01 T01920152  RH  080%=      5-min Rain = 0
KONS 151040Z 20010KT 19/15 A2983 RMK A01 T01890151  RH  080%=      5-min Rain = 0
KONS 151045Z 20010KT 19/15 A2983 RMK A01 T01870151  RH  081%=      5-min Rain = 0
KONS 151050Z 20010KT 19/15 A2983 RMK A01 T01860151  RH  081%=      5-min Rain = 0
KONS 151055Z 20010KT 18/15 A2983 RMK A01 T01840150  RH  082%=      5-min Rain = 0
KONS 151100Z 20011KT 18/15 A2983 RMK A01 T01840150  RH  082%=      5-min Rain = 0
KONS 151105Z 20011KT 18/15 A2983 RMK A01 T01840149  RH  082%=      5-min Rain = 0
KONS 151110Z 19011KT 18/15 A2983 RMK A01 T01830149  RH  082%=      5-min Rain = 0
KONS 151115Z 20011KT 18/15 A2983 RMK A01 T01810148  RH  083%=      5-min Rain = 0
KONS 151120Z 20012KT 18/15 A2983 RMK A01 T01810148  RH  083%=      5-min Rain = 0
KONS 151125Z 20011KT 18/15 A2982 RMK A01 T01810148  RH  083%=      5-min Rain = 0
KONS 151130Z 21012KT 18/15 A2982 RMK A01 T01800147  RH  082%=      5-min Rain = 0
KONS 151135Z 21011KT 18/15 A2982 RMK A01 T01790146  RH  082%=      5-min Rain = 0
KONS 151140Z 21011KT 18/15 A2982 RMK A01 T01790145  RH  082%=      5-min Rain = 0
KONS 151145Z 21012KT 18/14 A2982 RMK A01 T01780144  RH  082%=      5-min Rain = 0
KONS 151150Z 21012KT 18/14 A2982 RMK A01 T01780143  RH  082%=      5-min Rain = 0
KONS 151155Z 21011KT 18/14 A2982 RMK A01 T01770143  RH  082%=      5-min Rain = 0
KONS 151200Z 22010KT 18/14 A2983 RMK A01 T01750142  RH  083%=      5-min Rain = 0
KONS 151205Z 23009KT 17/14 A2983 RMK A01 T01740142  RH  083%=      5-min Rain = 0
KONS 151210Z 23009KT 17/14 A2983 RMK A01 T01730142  RH  083%=      5-min Rain = 0
KONS 151215Z 23010KT 17/14 A2983 RMK A01 T01730141  RH  083%=      5-min Rain = 0
KONS 151220Z 24010KT 18/14 A2984 RMK A01 T01750140  RH  082%=      5-min Rain = 0
KONS 151225Z 24009KT 18/14 A2984 RMK A01 T01770139  RH  080%=      5-min Rain = 0
KONS 151230Z 24011KT 18/14 A2984 RMK A01 T01790138  RH  079%=      5-min Rain = 0
KONS 151235Z 25011KT 18/14 A2984 RMK A01 T01800138  RH  078%=      5-min Rain = 0
KONS 151240Z 25010KT 18/14 A2984 RMK A01 T01810138  RH  078%=      5-min Rain = 0
KONS 151245Z 26010KT 18/14 A2984 RMK A01 T01810139  RH  078%=      5-min Rain = 0
KONS 151250Z 27011KT 18/14 A2985 RMK A01 T01810138  RH  078%=      5-min Rain = 0
KONS 151255Z 27011KT 18/14 A2985 RMK A01 T01830137  RH  076%=      5-min Rain = 0
KONS 151300Z 27011KT 19/13 A2985 RMK A01 T01850133  RH  073%=      5-min Rain = 0
KONS 151305Z 28012KT 19/12 A2985 RMK A01 T01870123  RH  067%=      5-min Rain = 0
KONS 151310Z 28012KT 19/12 A2985 RMK A01 T01880118  RH  065%=      5-min Rain = 0
KONS 151315Z 29013KT 19/11 A2985 RMK A01 T01870114  RH  064%=      5-min Rain = 0
KONS 151320Z 30013KT 19/11 A2985 RMK A01 T01870112  RH  063%=      5-min Rain = 0
KONS 151325Z 29012G17KT 19/11 A2985 RMK A01 T01880111  RH  062%=      5-min Rain = 0
KONS 151330Z 29012KT 19/11 A2985 RMK A01 T01880110  RH  062%=      5-min Rain = 0
KONS 151335Z 29013KT 19/11 A2986 RMK A01 T01880110  RH  062%=      5-min Rain = 0
KONS 151340Z 29012KT 19/11 A2986 RMK A01 T01880112  RH  062%=      5-min Rain = 0
KONS 151345Z 29012KT 19/11 A2986 RMK A01 T01890112  RH  062%=      5-min Rain = 0
KONS 151350Z 29012G17KT 19/12 A2986 RMK A01 T01910116  RH  063%=      5-min Rain = 0
KONS 151355Z 30011KT 19/12 A2986 RMK A01 T01920118  RH  063%=      5-min Rain = 0
KONS 151400Z 29012KT 20/12 A2986 RMK A01 T01950121  RH  064%=      5-min Rain = 0
KONS 151405Z 30013KT 20/12 A2986 RMK A01 T01960123  RH  064%=      5-min Rain = 0
KONS 151410Z 30013KT 20/12 A2986 RMK A01 T01980124  RH  064%=      5-min Rain = 0
KONS 151415Z 29014KT 20/13 A2986 RMK A01 T02010125  RH  063%=      5-min Rain = 0
KONS 151420Z 29013KT 20/13 A2986 RMK A01 T02040128  RH  063%=      5-min Rain = 0
KONS 151425Z 30012KT 21/13 A2986 RMK A01 T02080132  RH  063%=      5-min Rain = 0
KONS 151430Z 30012KT 21/13 A2986 RMK A01 T02110132  RH  062%=      5-min Rain = 0
KONS 151435Z 30013KT 21/13 A2986 RMK A01 T02130133  RH  061%=      5-min Rain = 0
KONS 151440Z 30012G17KT 22/13 A2986 RMK A01 T02160134  RH  061%=      5-min Rain = 0
KONS 151445Z 30013KT 22/13 A2986 RMK A01 T02180134  RH  060%=      5-min Rain = 0
KONS 151450Z 30014KT 22/14 A2986 RMK A01 T02200135  RH  059%=      5-min Rain = 0
KONS 151455Z 30013KT 22/14 A2986 RMK A01 T02240137  RH  059%=      5-min Rain = 0
KONS 151500Z 30012KT 23/14 A2986 RMK A01 T02280140  RH  059%=      5-min Rain = 0
KONS 151505Z 30012G17KT 23/14 A2986 RMK A01 T02330141  RH  058%=      5-min Rain = 0
KONS 151510Z 31012KT 24/14 A2986 RMK A01 T02350141  RH  057%=      5-min Rain = 0
KONS 151515Z 31011KT 24/14 A2986 RMK A01 T02390143  RH  056%=      5-min Rain = 0
KONS 151520Z 30012KT 24/14 A2986 RMK A01 T02410141  RH  055%=      5-min Rain = 0
KONS 151525Z 31011KT 24/14 A2986 RMK A01 T02430144  RH  055%=      5-min Rain = 0
KONS 151530Z 31012KT 25/14 A2986 RMK A01 T02450142  RH  054%=      5-min Rain = 0
KONS 151535Z 32012KT 25/14 A2986 RMK A01 T02480142  RH  053%=      5-min Rain = 0
KONS 151540Z 32011KT 25/14 A2985 RMK A01 T02510143  RH  052%=      5-min Rain = 0
KONS 151545Z 33012KT 26/14 A2985 RMK A01 T02550143  RH  051%=      5-min Rain = 0
KONS 151550Z 33011KT 26/14 A2986 RMK A01 T02580144  RH  050%=      5-min Rain = 0
KONS 151555Z 33011KT 26/15 A2986 RMK A01 T02630147  RH  050%=      5-min Rain = 0
KONS 151600Z 33012KT 26/14 A2986 RMK A01 T02640143  RH  048%=      5-min Rain = 0
KONS 151605Z 32012KT 27/15 A2987 RMK A01 T02660145  RH  049%=      5-min Rain = 0
KONS 151610Z 33013KT 27/14 A2987 RMK A01 T02670142  RH  047%=      5-min Rain = 0
KONS 151615Z 33013KT 27/14 A2987 RMK A01 T02670143  RH  047%=      5-min Rain = 0
KONS 151620Z 32012KT 27/15 A2987 RMK A01 T02700145  RH  047%=      5-min Rain = 0
KONS 151625Z 32011G16KT 27/15 A2987 RMK A01 T02730148  RH  047%=      5-min Rain = 0
KONS 151630Z 33011KT 28/15 A2987 RMK A01 T02750150  RH  047%=      5-min Rain = 0
KONS 151635Z 33012G17KT 28/15 A2987 RMK A01 T02780145  RH  045%=      5-min Rain = 0
KONS 151640Z 34012KT 28/15 A2987 RMK A01 T02790146  RH  045%=      5-min Rain = 0
KONS 151645Z 34012KT 28/15 A2988 RMK A01 T02810148  RH  045%=      5-min Rain = 0
KONS 151650Z 33012KT 28/15 A2988 RMK A01 T02820149  RH  045%=      5-min Rain = 0
KONS 151655Z 32011KT 28/15 A2988 RMK A01 T02840148  RH  045%=      5-min Rain = 0
KONS 151700Z 33012KT 29/15 A2988 RMK A01 T02860146  RH  043%=      5-min Rain = 0
KONS 151705Z 33012G17KT 29/14 A2988 RMK A01 T02870141  RH  042%=      5-min Rain = 0
KONS 151710Z 33011KT 29/14 A2988 RMK A01 T02860141  RH  042%=      5-min Rain = 0
KONS 151715Z 33012G19KT 29/14 A2988 RMK A01 T02890141  RH  041%=      5-min Rain = 0
KONS 151720Z 35012KT 29/14 A2988 RMK A01 T02900141  RH  041%=      5-min Rain = 0
KONS 151725Z 35011KT 29/14 A2988 RMK A01 T02920140  RH  040%=      5-min Rain = 0
KONS 151730Z 35010G15KT 29/14 A2988 RMK A01 T02920142  RH  041%=      5-min Rain = 0
KONS 151735Z 35009G14KT 29/14 A2988 RMK A01 T02940144  RH  041%=      5-min Rain = 0
KONS 151740Z 34010KT 30/15 A2988 RMK A01 T02950145  RH  041%=      5-min Rain = 0
KONS 151745Z 34009KT 30/14 A2988 RMK A01 T02960143  RH  040%=      5-min Rain = 0
KONS 151750Z 35009G14KT 30/15 A2988 RMK A01 T02980145  RH  040%=      5-min Rain = 0
KONS 151755Z 35010KT 30/15 A2987 RMK A01 T02980145  RH  040%=      5-min Rain = 0
KONS 151800Z 36010G15KT 30/15 A2987 RMK A01 T03010147  RH  040%=      5-min Rain = 0
KONS 151805Z 35010KT 30/14 A2987 RMK A01 T03010141  RH  038%=      5-min Rain = 0
KONS 151810Z 35011KT 30/14 A2987 RMK A01 T03010138  RH  038%=      5-min Rain = 0
KONS 151815Z 36009G14KT 30/14 A2987 RMK A01 T03020139  RH  038%=      5-min Rain = 0
KONS 151820Z 01009G15KT 30/14 A2987 RMK A01 T03040138  RH  037%=      5-min Rain = 0
KONS 151825Z 00011KT 30/14 A2987 RMK A01 T03040136  RH  037%=      5-min Rain = 0
KONS 151830Z 00010KT 31/14 A2987 RMK A01 T03060139  RH  037%=      5-min Rain = 0
KONS 151835Z 35008KT 31/13 A2987 RMK A01 T03060131  RH  035%=      5-min Rain = 0
KONS 151840Z 35011KT 31/13 A2987 RMK A01 T03080125  RH  033%=      5-min Rain = 0
KONS 151845Z 00008KT 31/14 A2987 RMK A01 T03100136  RH  035%=      5-min Rain = 0
KONS 151850Z 01009G14KT 31/14 A2987 RMK A01 T03130138  RH  035%=      5-min Rain = 0
KONS 151855Z 35010KT 31/13 A2986 RMK A01 T03130129  RH  033%=      5-min Rain = 0
KONS 151900Z 35009G14KT 31/13 A2986 RMK A01 T03130132  RH  034%=      5-min Rain = 0
KONS 151905Z 35011KT 31/12 A2986 RMK A01 T03130124  RH  032%=      5-min Rain = 0
KONS 151910Z 00010KT 31/12 A2986 RMK A01 T03140119  RH  031%=      5-min Rain = 0
KONS 151915Z 35010G16KT 32/13 A2986 RMK A01 T03180126  RH  032%=      5-min Rain = 0
KONS 151920Z 36008G13KT 32/12 A2986 RMK A01 T03160118  RH  030%=      5-min Rain = 0
KONS 151925Z 36010G15KT 32/12 A2986 RMK A01 T03180124  RH  031%=      5-min Rain = 0
KONS 151930Z 36008G14KT 32/12 A2985 RMK A01 T03160115  RH  030%=      5-min Rain = 0
KONS 151935Z 00008G13KT 32/12 A2985 RMK A01 T03200115  RH  029%=      5-min Rain = 0
KONS 151940Z 35010G17KT 32/11 A2985 RMK A01 T03210112  RH  028%=      5-min Rain = 0
KONS 151945Z 35007KT 32/11 A2985 RMK A01 T03190108  RH  028%=      5-min Rain = 0
KONS 151950Z 00010KT 32/11 A2985 RMK A01 T03220111  RH  028%=      5-min Rain = 0
KONS 151955Z 36006KT 32/11 A2985 RMK A01 T03230108  RH  027%=      5-min Rain = 0
KONS 152000Z 35009KT 33/10 A2985 RMK A01 T03250102  RH  026%=      5-min Rain = 0
KONS 152005Z 35006KT 32/10 A2985 RMK A01 T03240098  RH  025%=      5-min Rain = 0
KONS 152010Z 03006KT 33/10 A2985 RMK A01 T03260097  RH  025%=      5-min Rain = 0
KONS 152015Z 01007G14KT 33/10 A2985 RMK A01 T03260102  RH  026%=      5-min Rain = 0
KONS 152020Z 02003KT 32/10 A2985 RMK A01 T03240101  RH  026%=      5-min Rain = 0
KONS 152025Z 03006KT 33/10 A2985 RMK A01 T03270096  RH  025%=      5-min Rain = 0
KONS 152030Z 33004KT 33/10 A2985 RMK A01 T03280096  RH  024%=      5-min Rain = 0
KONS 152035Z 02002KT 33/10 A2985 RMK A01 T03300097  RH  024%=      5-min Rain = 0
KONS 152040Z 05002KT 33/10 A2984 RMK A01 T03280103  RH  026%=      5-min Rain = 0
KONS 152045Z 02004KT 33/11 A2984 RMK A01 T03310108  RH  026%=      5-min Rain = 0
KONS 152050Z 05002G8KT 33/10 A2984 RMK A01 T03310100  RH  025%=      5-min Rain = 0
KONS 152055Z 07006KT 33/10 A2983 RMK A01 T03260103  RH  026%=      5-min Rain = 0
KONS 152100Z 08005G10KT 32/10 A2982 RMK A01 T03230096  RH  025%=      5-min Rain = 0
KONS 152105Z 10006KT 32/10 A2981 RMK A01 T03190098  RH  026%=      5-min Rain = 0
KONS 152110Z 08006G11KT 31/10 A2982 RMK A01 T03130101  RH  027%=      5-min Rain = 0
KONS 152115Z 10003KT 31/10 A2982 RMK A01 T03130095  RH  026%=      5-min Rain = 0
KONS 152120Z 13006KT 31/11 A2981 RMK A01 T03080107  RH  029%=      5-min Rain = 0
KONS 152125Z 15007KT 30/11 A2981 RMK A01 T03040106  RH  030%=      5-min Rain = 0
KONS 152130Z 19004KT 30/11 A2981 RMK A01 T03020114  RH  032%=      5-min Rain = 0
KONS 152135Z 21006KT 30/13 A2982 RMK A01 T02960125  RH  036%=      5-min Rain = 0
KONS 152140Z 21003KT 30/12 A2983 RMK A01 T02960123  RH  035%=      5-min Rain = 0
KONS 152145Z 33004G15KT 30/13 A2983 RMK A01 T02950133  RH  038%=      5-min Rain = 0
KONS 152150Z 34008KT 27/13 A2983 RMK A01 T02700131  RH  043%=      5-min Rain = 0
KONS 152155Z 35011G25KT 26/13 A2982 RMK A01 T02570134  RH  048%=      5-min Rain = 0
KONS 152200Z 00024G32KT 23/14 A2981 RMK A01 T02340143  RH  058%=      5-min Rain = 0
KONS 152205Z 35024G31KT 22/14 A2983 RMK A01 T02240138  RH  059%=      5-min Rain = 0
KONS 152210Z 35021G29KT 22/15 A2985 RMK A01 T02170147  RH  066%=      5-min Rain = 0
KONS 152215Z 35016G22KT 21/15 A2986 RMK A01 T02130154  RH  070%=      5-min Rain = 0
KONS 152220Z 01018G23KT 21/15 A2986 RMK A01 T02140154  RH  070%=      5-min Rain = 0
KONS 152225Z 02017KT 22/15 A2985 RMK A01 T02170152  RH  068%=      5-min Rain = 0
KONS 152230Z 02016G22KT 22/15 A2985 RMK A01 T02170153  RH  068%=      5-min Rain = 0
KONS 152235Z 03018G25KT 23/16 A2985 RMK A01 T02250155  RH  066%=      5-min Rain = 0
KONS 152240Z 03016KT 23/16 A2984 RMK A01 T02280158  RH  066%=      5-min Rain = 0
KONS 152245Z 02013KT 23/16 A2984 RMK A01 T02300161  RH  066%=      5-min Rain = 0
KONS 152250Z 02013G21KT 24/16 A2983 RMK A01 T02350162  RH  065%=      5-min Rain = 0
KONS 152255Z 02017G22KT 25/16 A2982 RMK A01 T02460155  RH  058%=      5-min Rain = 0
KONS 152300Z 02016G23KT 25/14 A2982 RMK A01 T02490142  RH  052%=      5-min Rain = 0
KONS 152305Z 03012G17KT 25/14 A2982 RMK A01 T02470142  RH  053%=      5-min Rain = 0
KONS 152310Z 02015KT 25/15 A2982 RMK A01 T02450148  RH  056%=      5-min Rain = 0
KONS 152315Z 02014G19KT 24/16 A2982 RMK A01 T02430156  RH  060%=      5-min Rain = 0
KONS 152320Z 02011G16KT 24/16 A2981 RMK A01 T02420160  RH  062%=      5-min Rain = 0
KONS 152325Z 03010KT 24/16 A2981 RMK A01 T02400162  RH  063%=      5-min Rain = 0
KONS 152330Z 03011KT 25/16 A2982 RMK A01 T02450162  RH  061%=      5-min Rain = 0
KONS 152335Z 03010KT 25/16 A2981 RMK A01 T02460164  RH  062%=      5-min Rain = 0
KONS 152340Z 03009KT 25/16 A2981 RMK A01 T02490163  RH  060%=      5-min Rain = 0
KONS 152345Z 01009KT 25/17 A2981 RMK A01 T02470165  RH  062%=      5-min Rain = 0
KONS 152350Z 02009KT 25/16 A2981 RMK A01 T02450164  RH  062%=      5-min Rain = 0
KONS 152355Z 03010KT 24/16 A298 RMK A01 T02440161  RH  061%=      5-min Rain = 0
KONS 160000Z 04013KT 25/15 A2982 RMK A01 T02450153  RH  058%=      5-min Rain = 0
KONS 160005Z 04014G19KT 25/14 A2983 RMK A01 T02470143  RH  054%=      5-min Rain = 0
KONS 160010Z 04012KT 25/14 A2984 RMK A01 T02450140  RH  053%=      5-min Rain = 0
KONS 160015Z 04013KT 25/13 A2984 RMK A01 T02450132  RH  050%=      5-min Rain = 0
KONS 160020Z 06018KT 25/12 A2986 RMK A01 T02450122  RH  047%=      5-min Rain = 0
KONS 160025Z 05017G23KT 24/12 A2986 RMK A01 T02430122  RH  048%=      5-min Rain = 0
KONS 160030Z 05017KT 24/12 A2987 RMK A01 T02430117  RH  046%=      5-min Rain = 0
KONS 160035Z 04016G21KT 24/12 A2988 RMK A01 T02400116  RH  047%=      5-min Rain = 0
KONS 160040Z 05017G23KT 23/12 A2987 RMK A01 T02330118  RH  049%=      5-min Rain = 0
KONS 160045Z 06017G22KT 23/12 A2987 RMK A01 T02290120  RH  051%=      5-min Rain = 0
KONS 160050Z 06017G22KT 23/12 A2987 RMK A01 T02270123  RH  053%=      5-min Rain = 0
KONS 160055Z 06017G23KT 23/12 A2987 RMK A01 T02280121  RH  052%=      5-min Rain = 0
KONS 160100Z 06017KT 23/12 A2987 RMK A01 T02290115  RH  049%=      5-min Rain = 0
KONS 160105Z 06019G26KT 23/11 A2987 RMK A01 T02290107  RH  047%=      5-min Rain = 0
KONS 160110Z 04016G21KT 23/11 A2988 RMK A01 T02290105  RH  046%=      5-min Rain = 0
KONS 160115Z 05015G20KT 23/10 A2988 RMK A01 T02280104  RH  046%=      5-min Rain = 0
KONS 160120Z 06016KT 23/10 A2988 RMK A01 T02260100  RH  046%=      5-min Rain = 0
KONS 160125Z 06016G22KT 23/10 A2987 RMK A01 T02250098  RH  045%=      5-min Rain = 0
KONS 160130Z 06015G21KT 22/10 A2987 RMK A01 T02220097  RH  046%=      5-min Rain = 0
KONS 160135Z 05014G19KT 22/10 A2987 RMK A01 T02190098  RH  047%=      5-min Rain = 0
KONS 160140Z 05014G19KT 22/10 A2987 RMK A01 T02160098  RH  048%=      5-min Rain = 0
KONS 160145Z 05013KT 21/10 A2986 RMK A01 T02130098  RH  048%=      5-min Rain = 0
KONS 160150Z 04014G19KT 21/10 A2986 RMK A01 T02100100  RH  050%=      5-min Rain = 0
KONS 160155Z 04013G18KT 21/11 A2986 RMK A01 T02050106  RH  054%=      5-min Rain = 0
KONS 160200Z 06013KT 20/11 A2984 RMK A01 T02010106  RH  055%=      5-min Rain = 0
KONS 160205Z 06011G18KT 20/10 A2984 RMK A01 T01990104  RH  055%=      5-min Rain = 0
KONS 160210Z 06010KT 20/10 A2983 RMK A01 T01960104  RH  056%=      5-min Rain = 0
KONS 160215Z 07010KT 20/10 A2983 RMK A01 T01960102  RH  055%=      5-min Rain = 0
KONS 160220Z 07010KT 20/10 A2982 RMK A01 T01970099  RH  054%=      5-min Rain = 0
KONS 160225Z 07009KT 20/10 A2983 RMK A01 T01950097  RH  054%=      5-min Rain = 0
KONS 160230Z 08011KT 20/10 A2983 RMK A01 T01960095  RH  053%=      5-min Rain = 0
KONS 160235Z 08012KT 20/09 A2982 RMK A01 T01980093  RH  052%=      5-min Rain = 0
KONS 160240Z 08011KT 20/09 A2982 RMK A01 T01980092  RH  051%=      5-min Rain = 0
KONS 160245Z 07009KT 20/09 A2982 RMK A01 T01990090  RH  050%=      5-min Rain = 0
KONS 160250Z 06008KT 20/09 A2982 RMK A01 T01980089  RH  050%=      5-min Rain = 0
KONS 160255Z 06008KT 20/09 A2983 RMK A01 T01980089  RH  050%=      5-min Rain = 0
KONS 160300Z 05006KT 19/10 A2983 RMK A01 T01930095  RH  054%=      5-min Rain = 0
KONS 160305Z 07006KT 19/10 A2983 RMK A01 T01880096  RH  056%=      5-min Rain = 0
KONS 160310Z 07007KT 18/10 A2984 RMK A01 T01830097  RH  058%=      5-min Rain = 0
KONS 160315Z 05007KT 18/10 A2984 RMK A01 T01790100  RH  061%=      5-min Rain = 0
KONS 160320Z 06007KT 18/10 A2984 RMK A01 T01770103  RH  063%=      5-min Rain = 0
KONS 160325Z 07007KT 18/10 A2985 RMK A01 T01760102  RH  063%=      5-min Rain = 0
KONS 160330Z 07006KT 17/10 A2986 RMK A01 T01740104  RH  064%=      5-min Rain = 0
KONS 160335Z 06006KT 17/11 A2987 RMK A01 T01710108  RH  067%=      5-min Rain = 0
KONS 160340Z 08006KT 17/11 A2987 RMK A01 T01700107  RH  068%=      5-min Rain = 0
KONS 160345Z 08007KT 17/11 A2987 RMK A01 T01710107  RH  067%=      5-min Rain = 0
KONS 160350Z 08008KT 17/11 A2987 RMK A01 T01700107  RH  067%=      5-min Rain = 0
KONS 160355Z 07008KT 17/11 A2988 RMK A01 T01710105  RH  066%=      5-min Rain = 0
KONS 160400Z 01011G20KT 17/11 A2989 RMK A01 T01710106  RH  067%=      5-min Rain = 0
KONS 160405Z 01015G20KT 18/11 A2992 RMK A01 T01810110  RH  064%=      5-min Rain = 0
KONS 160410Z 03013KT 20/10 A2991 RMK A01 T01990096  RH  052%=      5-min Rain = 0
KONS 160415Z 03012KT 20/10 A2991 RMK A01 T01970095  RH  053%=      5-min Rain = 0
KONS 160420Z 01014KT 19/10 A2992 RMK A01 T01940097  RH  054%=      5-min Rain = 0
KONS 160425Z 00014KT 19/10 A2992 RMK A01 T01900101  RH  057%=      5-min Rain = 0
KONS 160430Z 00013G18KT 19/10 A2992 RMK A01 T01930095  RH  054%=      5-min Rain = 0
KONS 160435Z 01011KT 19/10 A2992 RMK A01 T01890097  RH  056%=      5-min Rain = 0
KONS 160440Z 00010KT 19/10 A2993 RMK A01 T01860099  RH  058%=      5-min Rain = 0
KONS 160445Z 00010KT 19/10 A2992 RMK A01 T01850098  RH  058%=      5-min Rain = 0
KONS 160450Z 35009KT 18/10 A2993 RMK A01 T01800101  RH  061%=      5-min Rain = 0
KONS 160455Z 00007KT 18/10 A2992 RMK A01 T01770102  RH  063%=      5-min Rain = 0

Page generated in 0.0091 seconds.